createdAt,value
2018-05-02T00:01:37.568Z,4.62
2018-05-02T00:04:09.227Z,5.72
2018-05-02T00:06:40.811Z,5.03
2018-05-02T00:09:12.383Z,4.15
2018-05-02T00:11:43.965Z,4.72
2018-05-02T00:14:15.539Z,4.62
2018-05-02T00:16:47.126Z,5.03
2018-05-02T00:19:18.743Z,5.20
2018-05-02T00:21:50.334Z,4.20
2018-05-02T00:24:21.907Z,4.78
2018-05-02T00:26:53.486Z,4.60
2018-05-02T00:29:25.058Z,5.05
2018-05-02T00:31:56.643Z,4.70
2018-05-02T00:34:28.270Z,3.70
2018-05-02T00:36:59.931Z,3.47
2018-05-02T00:39:31.516Z,3.92
2018-05-02T00:42:03.086Z,3.55
2018-05-02T00:44:34.666Z,4.62
2018-05-02T00:47:06.265Z,5.30
2018-05-02T00:49:37.838Z,4.32
2018-05-02T00:52:09.439Z,4.60
2018-05-02T00:54:41.106Z,5.25
2018-05-02T00:57:12.744Z,5.47
2018-05-02T00:59:44.294Z,5.47
2018-05-02T01:02:15.924Z,5.37
2018-05-02T01:04:47.506Z,6.00
2018-05-02T01:07:19.122Z,4.53
2018-05-02T01:09:50.675Z,5.47
2018-05-02T01:12:22.291Z,5.15
2018-05-02T01:14:53.873Z,4.30
2018-05-02T01:17:25.475Z,4.97
2018-05-02T01:19:57.146Z,4.57
2018-05-02T01:22:28.763Z,4.20
2018-05-02T01:25:00.364Z,4.12
2018-05-02T01:27:31.950Z,4.78
2018-05-02T01:30:03.522Z,5.10
2018-05-02T01:32:35.218Z,4.85
2018-05-02T01:35:06.878Z,5.60
2018-05-02T01:37:38.491Z,4.90
2018-05-02T01:40:10.091Z,5.10
2018-05-02T01:42:41.748Z,5.10
2018-05-02T01:45:13.323Z,5.07
2018-05-02T01:47:44.956Z,5.45
2018-05-02T01:50:16.527Z,5.40
2018-05-02T01:52:48.117Z,5.40
2018-05-02T01:55:19.715Z,4.85
2018-05-02T01:57:51.296Z,5.43
2018-05-02T02:00:23.001Z,6.00
2018-05-02T02:02:55.311Z,5.72
2018-05-02T02:05:26.878Z,5.35
2018-05-02T02:07:58.641Z,5.50
2018-05-02T02:10:30.271Z,5.78
2018-05-02T02:13:01.857Z,5.22
2018-05-02T02:15:33.435Z,5.70
2018-05-02T02:18:05.131Z,5.25
2018-05-02T02:20:36.793Z,5.70
2018-05-02T02:23:08.373Z,5.75
2018-05-02T02:25:39.951Z,5.50
2018-05-02T02:28:11.558Z,5.72
2018-05-02T02:30:43.140Z,5.55
2018-05-02T02:33:15.098Z,5.45
2018-05-02T02:35:46.726Z,6.25
2018-05-02T02:38:18.375Z,5.40
2018-05-02T02:40:50.035Z,5.10
2018-05-02T02:43:21.685Z,5.25
2018-05-02T02:45:53.335Z,5.78
2018-05-02T02:48:24.934Z,5.70
2018-05-02T02:50:56.506Z,5.55
2018-05-02T02:53:28.190Z,5.75
2018-05-02T02:55:59.743Z,6.47
2018-05-02T02:58:31.343Z,6.03
2018-05-02T03:01:02.979Z,5.20
2018-05-02T03:03:34.587Z,6.20
2018-05-02T03:06:06.174Z,6.60
2018-05-02T03:08:37.830Z,5.20
2018-05-02T03:11:09.488Z,5.95
2018-05-02T03:13:41.085Z,5.45
2018-05-02T03:16:12.667Z,5.45
2018-05-02T03:18:44.267Z,5.65
2018-05-02T03:21:15.861Z,5.32
2018-05-02T03:23:47.500Z,5.37
2018-05-02T03:26:19.110Z,5.68
2018-05-02T03:28:50.705Z,5.32
2018-05-02T03:31:22.278Z,5.87
2018-05-02T03:33:53.895Z,4.75
2018-05-02T03:36:25.537Z,5.25
2018-05-02T03:38:57.131Z,5.07
2018-05-02T03:41:28.719Z,6.10
2018-05-02T03:44:00.306Z,5.50
2018-05-02T03:46:31.955Z,5.85
2018-05-02T03:49:03.546Z,4.57
2018-05-02T03:51:35.171Z,5.40
2018-05-02T03:54:06.813Z,5.72
2018-05-02T03:56:38.393Z,5.80
2018-05-02T03:59:09.975Z,5.07
2018-05-02T04:01:47.518Z,5.43
2018-05-02T04:04:40.063Z,5.10
2018-05-02T04:07:13.446Z,5.03
2018-05-02T04:09:45.040Z,5.95
2018-05-02T04:12:16.611Z,5.30
2018-05-02T04:14:48.194Z,5.75
2018-05-02T04:17:19.770Z,4.90
2018-05-02T04:19:51.422Z,5.32
2018-05-02T04:22:22.995Z,5.75
2018-05-02T04:24:54.582Z,5.50
2018-05-02T04:27:26.156Z,5.45
2018-05-02T04:29:57.739Z,4.97
2018-05-02T04:32:29.403Z,5.57
2018-05-02T04:35:01.069Z,5.35
2018-05-02T04:37:32.705Z,5.10
2018-05-02T04:40:04.289Z,5.50
2018-05-02T04:42:35.862Z,4.87
2018-05-02T04:45:07.442Z,6.00
2018-05-02T04:47:39.060Z,5.53
2018-05-02T04:50:10.682Z,5.55
2018-05-02T04:52:42.343Z,5.40
2018-05-02T04:55:13.851Z,5.37
2018-05-02T04:57:45.422Z,5.50
2018-05-02T05:00:17.011Z,4.97
2018-05-02T05:02:48.586Z,5.00
2018-05-02T05:05:20.186Z,5.62
2018-05-02T05:07:51.759Z,6.25
2018-05-02T05:10:23.416Z,6.07
2018-05-02T05:12:54.986Z,7.95
2018-05-02T05:15:26.566Z,7.50
2018-05-02T05:17:58.143Z,7.40
2018-05-02T05:20:29.835Z,6.75
2018-05-02T05:23:01.415Z,6.18
2018-05-02T05:25:33.006Z,5.28
2018-05-02T05:28:04.585Z,4.65
2018-05-02T05:30:36.249Z,5.07
2018-05-02T05:33:07.818Z,4.80
2018-05-02T05:35:39.414Z,5.57
2018-05-02T05:38:10.982Z,5.43
2018-05-02T05:40:42.674Z,4.32
2018-05-02T05:43:14.320Z,4.53
2018-05-02T05:45:45.975Z,4.68
2018-05-02T05:48:17.542Z,4.12
2018-05-02T05:50:49.126Z,4.70
2018-05-02T05:53:20.701Z,4.57
2018-05-02T05:55:52.394Z,4.18
2018-05-02T05:58:24.048Z,4.57
2018-05-02T06:00:55.642Z,4.05
2018-05-02T06:03:27.209Z,3.78
2018-05-02T06:05:58.819Z,4.50
2018-05-02T06:08:30.396Z,4.43
2018-05-02T06:11:02.023Z,4.03
2018-05-02T06:13:33.595Z,4.55
2018-05-02T06:16:05.195Z,4.45
2018-05-02T06:18:36.773Z,4.25
2018-05-02T06:21:08.368Z,4.25
2018-05-02T06:23:39.938Z,4.78
2018-05-02T06:26:11.523Z,5.10
2018-05-02T06:28:43.113Z,4.90
2018-05-02T06:31:14.753Z,4.90
2018-05-02T06:33:46.327Z,5.37
2018-05-02T06:36:17.971Z,4.70
2018-05-02T06:38:49.555Z,5.22
2018-05-02T06:41:21.369Z,5.10
2018-05-02T06:43:52.934Z,4.90
2018-05-02T06:46:24.499Z,5.05
2018-05-02T06:48:57.527Z,4.75
2018-05-02T06:51:30.600Z,4.80
2018-05-02T06:54:02.287Z,4.82
2018-05-02T06:56:33.867Z,5.18
2018-05-02T06:59:05.443Z,5.62
2018-05-02T07:01:37.059Z,5.60
2018-05-02T07:04:09.650Z,4.95
2018-05-02T07:06:41.320Z,4.68
2018-05-02T07:09:12.966Z,5.15
2018-05-02T07:11:44.550Z,4.82
2018-05-02T07:14:16.127Z,4.97
2018-05-02T07:16:50.683Z,4.70
2018-05-02T07:19:22.251Z,5.40
2018-05-02T07:21:53.851Z,5.35
2018-05-02T07:24:25.900Z,5.43
2018-05-02T07:26:57.522Z,5.15
2018-05-02T07:29:29.117Z,4.28
2018-05-02T07:32:00.690Z,5.15
2018-05-02T07:34:32.259Z,4.30
2018-05-02T07:37:03.947Z,3.92
2018-05-02T07:39:35.520Z,4.35
2018-05-02T07:42:07.167Z,4.50
2018-05-02T07:44:38.707Z,4.62
2018-05-02T07:47:10.363Z,3.80
2018-05-02T07:49:41.952Z,4.30
2018-05-02T07:52:13.548Z,4.57
2018-05-02T07:54:45.237Z,3.90
2018-05-02T07:57:16.886Z,4.82
2018-05-02T07:59:48.544Z,4.90
2018-05-02T08:02:20.205Z,5.10
2018-05-02T08:04:51.805Z,4.50
2018-05-02T08:07:23.407Z,4.45
2018-05-02T08:09:54.977Z,4.45
2018-05-02T08:12:26.570Z,5.00
2018-05-02T08:14:58.167Z,4.82
2018-05-02T08:17:29.754Z,3.92
2018-05-02T08:20:01.330Z,4.30
2018-05-02T08:22:32.981Z,4.57
2018-05-02T08:25:04.551Z,4.85
2018-05-02T08:27:36.138Z,4.62
2018-05-02T08:30:07.791Z,4.60
2018-05-02T08:32:39.451Z,4.70
2018-05-02T08:35:11.106Z,5.28
2018-05-02T08:37:42.790Z,4.90
2018-05-02T08:40:14.365Z,4.90
2018-05-02T08:42:45.981Z,4.30
2018-05-02T08:45:17.613Z,4.03
2018-05-02T08:47:49.195Z,4.53
2018-05-02T08:50:20.767Z,3.50
2018-05-02T08:52:52.382Z,3.83
2018-05-02T08:55:24.047Z,4.43
2018-05-02T08:57:55.646Z,5.00
2018-05-02T09:00:27.266Z,4.85
2018-05-02T09:02:58.851Z,4.80
2018-05-02T09:05:30.422Z,3.95
2018-05-02T09:08:02.110Z,4.05
2018-05-02T09:10:33.687Z,4.15
2018-05-02T09:13:05.304Z,4.60
2018-05-02T09:15:36.873Z,3.85
2018-05-02T09:18:08.528Z,4.10
2018-05-02T09:20:40.189Z,4.05
2018-05-02T09:23:11.786Z,3.55
2018-05-02T09:25:43.467Z,4.43
2018-05-02T09:28:15.002Z,3.90
2018-05-02T09:30:46.583Z,4.10
2018-05-02T09:33:18.174Z,4.50
2018-05-02T09:35:49.766Z,4.40
2018-05-02T09:38:21.361Z,4.35
2018-05-02T09:40:52.936Z,3.85
2018-05-02T09:43:24.570Z,4.30
2018-05-02T09:45:56.142Z,4.00
2018-05-02T09:48:27.786Z,3.65
2018-05-02T09:50:59.368Z,4.28
2018-05-02T09:53:30.956Z,3.53
2018-05-02T09:56:02.537Z,4.03
2018-05-02T09:58:34.106Z,3.90
2018-05-02T10:01:05.686Z,4.78
2018-05-02T10:03:37.265Z,4.20
2018-05-02T10:06:08.862Z,4.40
2018-05-02T10:08:40.459Z,4.07
2018-05-02T10:11:12.037Z,4.00
2018-05-02T10:13:43.621Z,4.50
2018-05-02T10:16:15.283Z,3.75
2018-05-02T10:18:46.926Z,4.55
2018-05-02T10:21:18.494Z,4.05
2018-05-02T10:23:50.968Z,3.78
2018-05-02T10:26:22.565Z,4.80
2018-05-02T10:28:54.131Z,4.43
2018-05-02T10:31:25.713Z,3.95
2018-05-02T10:33:57.374Z,4.35
2018-05-02T10:36:29.423Z,3.90
2018-05-02T10:39:01.031Z,3.83
2018-05-02T10:41:32.763Z,3.97
2018-05-02T10:44:04.330Z,3.80
2018-05-02T10:46:35.959Z,3.00
2018-05-02T10:49:07.622Z,3.60
2018-05-02T10:51:39.207Z,3.10
2018-05-02T10:54:10.797Z,3.78
2018-05-02T10:56:42.367Z,3.37
2018-05-02T10:59:14.043Z,3.30
2018-05-02T11:01:45.698Z,3.08
2018-05-02T11:04:17.352Z,2.90
2018-05-02T11:06:48.923Z,3.20
2018-05-02T11:09:20.526Z,3.05
2018-05-02T11:11:52.100Z,3.30
2018-05-02T11:14:23.765Z,2.97
2018-05-02T11:16:55.342Z,2.70
2018-05-02T11:19:26.918Z,3.00
2018-05-02T11:21:58.492Z,3.53
2018-05-02T11:24:30.078Z,3.65
2018-05-02T11:27:01.653Z,3.20
2018-05-02T11:29:33.290Z,2.80
2018-05-02T11:32:04.858Z,3.00
2018-05-02T11:34:36.455Z,3.17
2018-05-02T11:37:08.013Z,3.10
2018-05-02T11:39:39.622Z,3.25
2018-05-02T11:42:11.186Z,3.15
2018-05-02T11:44:42.766Z,3.62
2018-05-02T11:47:14.338Z,3.30
2018-05-02T11:49:45.934Z,3.70
2018-05-02T11:52:17.573Z,3.72
2018-05-02T11:54:49.166Z,3.15
2018-05-02T11:57:20.740Z,3.00
2018-05-02T11:59:52.340Z,3.60
2018-05-02T12:02:23.915Z,3.15
2018-05-02T12:04:55.498Z,3.28
2018-05-02T12:07:27.072Z,3.22
2018-05-02T12:09:58.667Z,2.42
2018-05-02T12:12:30.238Z,2.72
2018-05-02T12:15:01.827Z,3.72
2018-05-02T12:17:33.402Z,3.78
2018-05-02T12:20:04.998Z,3.33
2018-05-02T12:22:36.566Z,3.90
2018-05-02T12:25:08.155Z,3.47
2018-05-02T12:27:39.731Z,3.22
2018-05-02T12:30:11.342Z,3.60
2018-05-02T12:32:42.905Z,3.25
2018-05-02T12:35:14.498Z,3.70
2018-05-02T12:37:46.071Z,3.70
2018-05-02T12:40:17.672Z,3.75
2018-05-02T12:42:49.248Z,3.00
2018-05-02T12:45:20.839Z,3.97
2018-05-02T12:47:52.412Z,4.78
2018-05-02T12:50:24.002Z,3.70
2018-05-02T12:52:55.610Z,3.12
2018-05-02T12:55:27.213Z,3.10
2018-05-02T12:57:58.768Z,4.00
2018-05-02T13:00:30.358Z,3.80
2018-05-02T13:03:01.929Z,3.97
2018-05-02T13:05:33.529Z,3.95
2018-05-02T13:08:05.123Z,4.18
2018-05-02T13:10:36.706Z,3.10
2018-05-02T13:13:08.295Z,3.12
2018-05-02T13:15:39.885Z,3.85
2018-05-02T13:18:11.448Z,3.28
2018-05-02T13:20:43.044Z,3.92
2018-05-02T13:23:14.611Z,3.12
2018-05-02T13:25:46.202Z,3.85
2018-05-02T13:28:17.771Z,3.72
2018-05-02T13:30:49.358Z,3.83
2018-05-02T13:33:20.967Z,3.10
2018-05-02T13:35:52.515Z,3.45
2018-05-02T13:38:24.092Z,3.75
2018-05-02T13:40:55.678Z,3.50
2018-05-02T13:43:27.246Z,4.10
2018-05-02T13:45:58.842Z,4.57
2018-05-02T13:48:30.458Z,4.18
2018-05-02T13:51:02.043Z,4.20
2018-05-02T13:53:33.678Z,4.68
2018-05-02T13:56:05.387Z,4.40
2018-05-02T13:58:36.970Z,4.40
2018-05-02T14:01:08.638Z,4.28
2018-05-02T14:03:40.208Z,4.80
2018-05-02T14:06:11.804Z,4.18
2018-05-02T14:08:43.394Z,4.82
2018-05-02T14:11:14.989Z,5.25
2018-05-02T14:13:46.567Z,5.25
2018-05-02T14:16:18.157Z,5.25
2018-05-02T14:18:49.733Z,4.95
2018-05-02T14:21:21.363Z,5.45
2018-05-02T14:23:53.022Z,5.90
2018-05-02T14:26:24.682Z,5.53
2018-05-02T14:28:56.338Z,5.18
2018-05-02T14:31:27.915Z,5.28
2018-05-02T14:33:59.481Z,5.12
2018-05-02T14:36:31.073Z,5.07
2018-05-02T14:39:02.737Z,5.00
2018-05-02T14:41:34.335Z,6.07
2018-05-02T14:44:05.950Z,4.95
2018-05-02T14:46:37.619Z,5.65
2018-05-02T14:49:09.190Z,5.60
2018-05-02T14:51:40.785Z,7.60
2018-05-02T14:54:12.367Z,6.10
2018-05-02T14:56:43.950Z,5.37
2018-05-02T14:59:15.586Z,5.90
2018-05-02T15:01:47.335Z,6.30
2018-05-02T15:04:18.999Z,5.40
2018-05-02T15:06:50.626Z,5.00
2018-05-02T15:09:22.315Z,5.28
2018-05-02T15:11:53.958Z,5.70
2018-05-02T15:14:25.598Z,5.57
2018-05-02T15:16:57.156Z,4.95
2018-05-02T15:19:28.730Z,6.62
2018-05-02T15:22:00.377Z,5.28
2018-05-02T15:24:31.951Z,5.93
2018-05-02T15:27:03.536Z,5.20
2018-05-02T15:29:35.107Z,6.15
2018-05-02T15:32:06.762Z,4.78
2018-05-02T15:34:38.337Z,5.60
2018-05-02T15:37:09.926Z,5.82
2018-05-02T15:39:41.557Z,6.28
2018-05-02T15:42:13.168Z,6.15
2018-05-02T15:44:44.740Z,5.30
2018-05-02T15:47:16.413Z,5.50
2018-05-02T15:49:47.993Z,5.40
2018-05-02T15:52:19.631Z,6.50
2018-05-02T15:54:51.363Z,6.05
2018-05-02T15:57:22.953Z,5.57
2018-05-02T15:59:54.600Z,5.40
2018-05-02T16:02:26.254Z,6.10
2018-05-02T16:04:57.825Z,6.50
2018-05-02T16:07:29.466Z,6.70
2018-05-02T16:10:01.106Z,5.60
2018-05-02T16:12:32.770Z,6.25
2018-05-02T16:15:04.330Z,5.68
2018-05-02T16:17:35.986Z,5.50
2018-05-02T16:20:07.568Z,5.82
2018-05-02T16:22:39.274Z,5.15
2018-05-02T16:25:11.070Z,6.28
2018-05-02T16:27:42.689Z,5.65
2018-05-02T16:30:14.258Z,6.70
2018-05-02T16:32:45.833Z,5.78
2018-05-02T16:35:17.404Z,6.40
2018-05-02T16:37:49.074Z,6.57
2018-05-02T16:40:20.681Z,5.80
2018-05-02T16:42:52.274Z,6.00
2018-05-02T16:45:23.846Z,6.28
2018-05-02T16:47:55.441Z,5.60
2018-05-02T16:50:27.004Z,6.00
2018-05-02T16:52:58.598Z,5.72
2018-05-02T16:55:30.189Z,6.15
2018-05-02T16:58:02.398Z,5.95
2018-05-02T17:00:33.974Z,5.90
2018-05-02T17:03:05.579Z,6.28
2018-05-02T17:05:37.154Z,6.05
2018-05-02T17:08:08.856Z,6.55
2018-05-02T17:10:40.427Z,5.57
2018-05-02T17:13:12.090Z,6.62
2018-05-02T17:15:43.752Z,6.00
2018-05-02T17:18:15.347Z,5.95
2018-05-02T17:20:46.920Z,7.05
2018-05-02T17:23:18.512Z,6.70
2018-05-02T17:25:50.082Z,5.32
2018-05-02T17:28:21.667Z,6.30
2018-05-02T17:30:53.259Z,6.03
2018-05-02T17:33:24.842Z,6.12
2018-05-02T17:35:56.418Z,6.30
2018-05-02T17:38:28.000Z,7.40
2018-05-02T17:40:59.677Z,6.57
2018-05-02T17:43:31.183Z,6.87
2018-05-02T17:46:02.804Z,5.75
2018-05-02T17:48:34.393Z,5.30
2018-05-02T17:51:05.966Z,5.25
2018-05-02T17:53:37.558Z,5.55
2018-05-02T17:56:09.148Z,5.80
2018-05-02T17:58:40.730Z,6.05
2018-05-02T18:01:12.321Z,6.55
2018-05-02T18:03:43.919Z,5.60
2018-05-02T18:06:15.478Z,6.25
2018-05-02T18:08:47.065Z,6.57
2018-05-02T18:11:18.746Z,6.57
2018-05-02T18:13:56.144Z,5.93
2018-05-02T18:16:27.794Z,6.87
2018-05-02T18:18:59.385Z,4.80
2018-05-02T18:21:30.958Z,4.70
2018-05-02T18:24:02.545Z,6.43
2018-05-02T18:26:34.209Z,5.80
2018-05-02T18:29:05.798Z,5.62
2018-05-02T18:31:37.370Z,4.97
2018-05-02T18:34:08.966Z,4.95
2018-05-02T18:36:40.539Z,4.70
2018-05-02T18:39:12.183Z,4.97
2018-05-02T18:41:43.839Z,6.30
2018-05-02T18:44:15.430Z,4.93
2018-05-02T18:46:47.010Z,4.93
2018-05-02T18:49:18.594Z,5.70
2018-05-02T18:51:50.246Z,5.05
2018-05-02T18:54:21.913Z,5.05
2018-05-02T18:56:53.506Z,5.28
2018-05-02T18:59:25.104Z,4.25
2018-05-02T19:01:56.765Z,4.22
2018-05-02T19:04:28.446Z,4.53
2018-05-02T19:07:00.080Z,5.20
2018-05-02T19:09:31.821Z,4.60
2018-05-02T19:12:03.395Z,5.07
2018-05-02T19:14:34.987Z,5.20
2018-05-02T19:17:06.558Z,4.57
2018-05-02T19:19:43.921Z,5.32
2018-05-02T19:22:15.493Z,4.47
2018-05-02T19:24:52.822Z,4.68
2018-05-02T19:27:24.401Z,4.50
2018-05-02T19:29:56.095Z,4.68
2018-05-02T19:32:33.315Z,5.05
2018-05-02T19:35:04.981Z,4.50
2018-05-02T19:37:36.669Z,4.32
2018-05-02T19:40:13.949Z,4.70
2018-05-02T19:42:51.430Z,4.68
2018-05-02T19:45:22.999Z,4.40
2018-05-02T19:47:54.573Z,4.82
2018-05-02T19:50:26.174Z,4.18
2018-05-02T19:52:57.749Z,4.55
2018-05-02T19:55:29.389Z,5.00
2018-05-02T19:58:01.041Z,4.03
2018-05-02T20:00:38.510Z,5.05
2018-05-02T20:03:10.081Z,4.32
2018-05-02T20:05:41.713Z,4.40
2018-05-02T20:08:19.045Z,3.90
2018-05-02T20:10:56.393Z,4.60
2018-05-02T20:13:33.776Z,4.87
2018-05-02T20:16:05.888Z,4.12
2018-05-02T20:18:37.462Z,4.90
2018-05-02T20:21:09.055Z,4.53
2018-05-02T20:23:40.635Z,4.50
2018-05-02T20:26:12.304Z,4.78
2018-05-02T20:28:43.954Z,4.22
2018-05-02T20:31:15.614Z,3.92
2018-05-02T20:33:47.266Z,4.35
2018-05-02T20:36:18.874Z,4.32
2018-05-02T20:38:50.469Z,3.80
2018-05-02T20:41:22.222Z,4.45
2018-05-02T20:43:53.803Z,4.20
2018-05-02T20:46:25.446Z,3.90
2018-05-02T20:48:56.956Z,4.30
2018-05-02T20:51:28.642Z,3.60
2018-05-02T20:54:00.216Z,4.22
2018-05-02T20:56:31.859Z,3.60
2018-05-02T20:59:03.434Z,3.83
2018-05-02T21:01:35.014Z,3.53
2018-05-02T21:04:06.592Z,3.40
2018-05-02T21:06:38.274Z,4.32
2018-05-02T21:09:09.937Z,3.70
2018-05-02T21:11:41.582Z,3.70
2018-05-02T21:14:13.233Z,4.10
2018-05-02T21:16:44.890Z,3.87
2018-05-02T21:19:16.555Z,3.28
2018-05-02T21:21:48.143Z,4.45
2018-05-02T21:24:19.714Z,4.30
2018-05-02T21:26:51.303Z,4.20
2018-05-02T21:29:22.870Z,4.30
2018-05-02T21:31:54.519Z,4.20
2018-05-02T21:34:26.186Z,3.60
2018-05-02T21:36:57.830Z,4.82
2018-05-02T21:39:29.400Z,4.93
2018-05-02T21:42:01.047Z,3.87
2018-05-02T21:44:32.614Z,4.53
2018-05-02T21:47:04.251Z,4.53
2018-05-02T21:49:35.906Z,4.80
2018-05-02T21:52:07.566Z,5.50
2018-05-02T21:54:39.134Z,4.32
2018-05-02T21:57:10.716Z,5.05
2018-05-02T21:59:42.340Z,5.00
2018-05-02T22:02:13.893Z,4.75
2018-05-02T22:04:45.463Z,4.10
2018-05-02T22:07:17.075Z,4.03
2018-05-02T22:09:48.644Z,4.53
2018-05-02T22:12:20.296Z,3.78
2018-05-02T22:14:51.863Z,4.35
2018-05-02T22:17:23.467Z,3.83
2018-05-02T22:19:55.042Z,4.45
2018-05-02T22:22:26.710Z,3.92
2018-05-02T22:24:58.286Z,4.10
2018-05-02T22:27:29.934Z,3.75
2018-05-02T22:30:01.491Z,4.70
2018-05-02T22:32:33.091Z,4.80
2018-05-02T22:35:04.682Z,4.90
2018-05-02T22:37:36.343Z,4.50
2018-05-02T22:40:07.966Z,4.20
2018-05-02T22:42:39.589Z,4.72
2018-05-02T22:45:11.123Z,4.72
2018-05-02T22:47:42.769Z,4.60
2018-05-02T22:50:14.407Z,4.55
2018-05-02T22:52:46.002Z,4.85
2018-05-02T22:55:17.628Z,4.53
2018-05-02T22:57:49.256Z,5.30
2018-05-02T23:00:20.841Z,5.40
2018-05-02T23:02:52.410Z,6.00
2018-05-02T23:05:23.982Z,5.45
2018-05-02T23:07:55.586Z,5.20
2018-05-02T23:10:27.153Z,5.45
2018-05-02T23:12:58.742Z,6.80
2018-05-02T23:15:30.323Z,6.03
2018-05-02T23:18:01.906Z,5.72
2018-05-02T23:20:33.474Z,5.80
2018-05-02T23:23:05.070Z,6.05
2018-05-02T23:25:36.666Z,5.90
2018-05-02T23:28:08.250Z,5.70
2018-05-02T23:30:39.813Z,5.32
2018-05-02T23:33:11.394Z,6.15
2018-05-02T23:35:42.968Z,5.40
2018-05-02T23:38:14.551Z,5.25
2018-05-02T23:40:46.118Z,5.80
2018-05-02T23:43:17.698Z,4.93
2018-05-02T23:45:49.263Z,4.78
2018-05-02T23:48:21.291Z,5.55
2018-05-02T23:50:52.869Z,6.03
2018-05-02T23:53:24.455Z,5.07
2018-05-02T23:55:56.027Z,5.25
2018-05-02T23:58:27.679Z,5.55
